sensor_id;sensor_type;location;lat;lon;timestamp;pressure;altitude;pressure_sealevel;temperature
70415;BMP280;57837;52.064;113.478;2023-05-07T00:01:11;93845.56;;;23.17
70415;BMP280;57837;52.064;113.478;2023-05-07T00:04:14;93852.00;;;23.09
70415;BMP280;57837;52.064;113.478;2023-05-07T00:07:18;93855.59;;;22.78
70415;BMP280;57837;52.064;113.478;2023-05-07T00:10:22;93845.69;;;23.33
70415;BMP280;57837;52.064;113.478;2023-05-07T00:13:26;93834.22;;;23.09
70415;BMP280;57837;52.064;113.478;2023-05-07T00:16:30;93832.56;;;22.18
70415;BMP280;57837;52.064;113.478;2023-05-07T00:19:33;93844.47;;;22.25
70415;BMP280;57837;52.064;113.478;2023-05-07T00:22:37;93839.09;;;22.04
70415;BMP280;57837;52.064;113.478;2023-05-07T00:25:40;93841.16;;;23.97
70415;BMP280;57837;52.064;113.478;2023-05-07T00:28:44;93841.44;;;25.26
70415;BMP280;57837;52.064;113.478;2023-05-07T00:31:49;93826.91;;;25.57
70415;BMP280;57837;52.064;113.478;2023-05-07T00:34:53;93828.06;;;26.59
70415;BMP280;57837;52.064;113.478;2023-05-07T00:37:56;93814.81;;;26.76
70415;BMP280;57837;52.064;113.478;2023-05-07T00:40:59;93811.69;;;26.94
70415;BMP280;57837;52.064;113.478;2023-05-07T00:44:03;93812.13;;;26.59
70415;BMP280;57837;52.064;113.478;2023-05-07T00:47:07;93804.41;;;26.13
70415;BMP280;57837;52.064;113.478;2023-05-07T00:50:11;93816.09;;;25.55
70415;BMP280;57837;52.064;113.478;2023-05-07T00:53:16;93808.03;;;25.23
70415;BMP280;57837;52.064;113.478;2023-05-07T00:56:23;93807.44;;;25.62
70415;BMP280;57837;52.064;113.478;2023-05-07T00:59:27;93804.31;;;25.33
70415;BMP280;57837;52.064;113.478;2023-05-07T01:02:30;93791.97;;;24.91
70415;BMP280;57837;52.064;113.478;2023-05-07T01:05:34;93795.31;;;25.14
70415;BMP280;57837;52.064;113.478;2023-05-07T01:08:40;93802.94;;;26.77
70415;BMP280;57837;52.064;113.478;2023-05-07T01:11:43;93798.25;;;27.27
70415;BMP280;57837;52.064;113.478;2023-05-07T01:14:48;93789.44;;;28.02
70415;BMP280;57837;52.064;113.478;2023-05-07T01:17:52;93793.69;;;28.15
70415;BMP280;57837;52.064;113.478;2023-05-07T01:21:04;93786.28;;;28.50
70415;BMP280;57837;52.064;113.478;2023-05-07T01:24:07;93765.75;;;28.98
70415;BMP280;57837;52.064;113.478;2023-05-07T01:27:11;93764.41;;;29.85
70415;BMP280;57837;52.064;113.478;2023-05-07T01:30:14;93764.50;;;28.34
70415;BMP280;57837;52.064;113.478;2023-05-07T01:33:21;93783.38;;;26.40
70415;BMP280;57837;52.064;113.478;2023-05-07T01:36:25;93772.31;;;24.41
70415;BMP280;57837;52.064;113.478;2023-05-07T01:39:30;93761.09;;;23.61
70415;BMP280;57837;52.064;113.478;2023-05-07T01:42:33;93760.44;;;24.19
70415;BMP280;57837;52.064;113.478;2023-05-07T01:45:38;93755.09;;;24.04
70415;BMP280;57837;52.064;113.478;2023-05-07T01:48:42;93752.69;;;24.36
70415;BMP280;57837;52.064;113.478;2023-05-07T01:51:49;93751.34;;;24.96
70415;BMP280;57837;52.064;113.478;2023-05-07T01:54:53;93763.66;;;25.16
70415;BMP280;57837;52.064;113.478;2023-05-07T01:57:56;93744.06;;;25.81
70415;BMP280;57837;52.064;113.478;2023-05-07T02:01:00;93738.03;;;27.04
70415;BMP280;57837;52.064;113.478;2023-05-07T02:04:04;93719.44;;;27.92
70415;BMP280;57837;52.064;113.478;2023-05-07T02:07:08;93724.03;;;28.64
70415;BMP280;57837;52.064;113.478;2023-05-07T02:10:12;93718.84;;;29.33
70415;BMP280;57837;52.064;113.478;2023-05-07T02:13:16;93724.34;;;29.95
70415;BMP280;57837;52.064;113.478;2023-05-07T02:16:19;93725.09;;;30.17
70415;BMP280;57837;52.064;113.478;2023-05-07T02:19:23;93722.81;;;29.13
70415;BMP280;57837;52.064;113.478;2023-05-07T02:22:26;93722.25;;;29.05
70415;BMP280;57837;52.064;113.478;2023-05-07T02:25:30;93713.19;;;28.43
70415;BMP280;57837;52.064;113.478;2023-05-07T02:28:33;93721.47;;;26.96
70415;BMP280;57837;52.064;113.478;2023-05-07T02:31:40;93725.44;;;25.89
70415;BMP280;57837;52.064;113.478;2023-05-07T02:34:43;93706.78;;;25.09
70415;BMP280;57837;52.064;113.478;2023-05-07T02:37:47;93705.22;;;24.23
70415;BMP280;57837;52.064;113.478;2023-05-07T02:40:50;93707.03;;;23.77
70415;BMP280;57837;52.064;113.478;2023-05-07T02:43:54;93706.88;;;23.39
70415;BMP280;57837;52.064;113.478;2023-05-07T02:46:57;93705.72;;;22.91
70415;BMP280;57837;52.064;113.478;2023-05-07T02:50:01;93710.38;;;22.57
70415;BMP280;57837;52.064;113.478;2023-05-07T02:53:05;93688.66;;;22.09
70415;BMP280;57837;52.064;113.478;2023-05-07T02:56:08;93694.44;;;22.08
70415;BMP280;57837;52.064;113.478;2023-05-07T02:59:11;93688.38;;;23.03
70415;BMP280;57837;52.064;113.478;2023-05-07T03:02:16;93684.75;;;23.22
70415;BMP280;57837;52.064;113.478;2023-05-07T03:05:20;93702.38;;;24.29
70415;BMP280;57837;52.064;113.478;2023-05-07T03:08:23;93684.03;;;23.57
70415;BMP280;57837;52.064;113.478;2023-05-07T03:11:25;93693.53;;;23.45
70415;BMP280;57837;52.064;113.478;2023-05-07T03:14:29;93681.75;;;23.17
70415;BMP280;57837;52.064;113.478;2023-05-07T03:17:33;93677.31;;;23.12
70415;BMP280;57837;52.064;113.478;2023-05-07T03:20:36;93663.19;;;22.53
70415;BMP280;57837;52.064;113.478;2023-05-07T03:23:39;93681.16;;;22.34
70415;BMP280;57837;52.064;113.478;2023-05-07T03:26:43;93680.84;;;22.04
70415;BMP280;57837;52.064;113.478;2023-05-07T03:29:47;93675.66;;;21.65
70415;BMP280;57837;52.064;113.478;2023-05-07T03:32:50;93645.38;;;21.58
70415;BMP280;57837;52.064;113.478;2023-05-07T03:35:55;93668.50;;;21.39
70415;BMP280;57837;52.064;113.478;2023-05-07T03:39:00;93663.84;;;21.45
70415;BMP280;57837;52.064;113.478;2023-05-07T03:42:11;93665.88;;;21.39
70415;BMP280;57837;52.064;113.478;2023-05-07T03:45:14;93661.13;;;21.24
70415;BMP280;57837;52.064;113.478;2023-05-07T03:48:24;93659.06;;;21.04
70415;BMP280;57837;52.064;113.478;2023-05-07T03:51:31;93656.97;;;21.42
70415;BMP280;57837;52.064;113.478;2023-05-07T03:54:35;93653.78;;;21.56
70415;BMP280;57837;52.064;113.478;2023-05-07T03:57:39;93629.25;;;21.61
70415;BMP280;57837;52.064;113.478;2023-05-07T04:00:43;93642.72;;;22.26
70415;BMP280;57837;52.064;113.478;2023-05-07T04:04:05;93638.59;;;23.15
70415;BMP280;57837;52.064;113.478;2023-05-07T04:07:10;93631.94;;;22.86
70415;BMP280;57837;52.064;113.478;2023-05-07T04:10:17;93629.50;;;22.67
70415;BMP280;57837;52.064;113.478;2023-05-07T04:13:24;93618.78;;;23.37
70415;BMP280;57837;52.064;113.478;2023-05-07T04:16:29;93602.41;;;22.67
70415;BMP280;57837;52.064;113.478;2023-05-07T04:19:33;93620.03;;;23.00
70415;BMP280;57837;52.064;113.478;2023-05-07T04:22:37;93594.56;;;23.17
70415;BMP280;57837;52.064;113.478;2023-05-07T04:25:41;93598.94;;;23.07
70415;BMP280;57837;52.064;113.478;2023-05-07T04:29:03;93590.13;;;23.56
70415;BMP280;57837;52.064;113.478;2023-05-07T04:32:09;93604.91;;;23.51
70415;BMP280;57837;52.064;113.478;2023-05-07T04:35:14;93576.59;;;24.05
70415;BMP280;57837;52.064;113.478;2023-05-07T04:38:17;93573.53;;;24.69
70415;BMP280;57837;52.064;113.478;2023-05-07T04:41:23;93571.41;;;24.67
70415;BMP280;57837;52.064;113.478;2023-05-07T04:44:27;93567.28;;;24.27
70415;BMP280;57837;52.064;113.478;2023-05-07T04:47:33;93560.19;;;24.21
70415;BMP280;57837;52.064;113.478;2023-05-07T04:50:37;93549.97;;;24.26
70415;BMP280;57837;52.064;113.478;2023-05-07T04:53:41;93555.63;;;24.22
70415;BMP280;57837;52.064;113.478;2023-05-07T04:56:45;93538.69;;;23.72
70415;BMP280;57837;52.064;113.478;2023-05-07T04:59:49;93545.78;;;23.11
70415;BMP280;57837;52.064;113.478;2023-05-07T05:02:53;93542.13;;;22.50
70415;BMP280;57837;52.064;113.478;2023-05-07T05:05:57;93519.69;;;22.07
70415;BMP280;57837;52.064;113.478;2023-05-07T05:09:06;93512.81;;;23.04
70415;BMP280;57837;52.064;113.478;2023-05-07T05:12:09;93524.25;;;23.07
70415;BMP280;57837;52.064;113.478;2023-05-07T05:15:13;93513.22;;;23.31
70415;BMP280;57837;52.064;113.478;2023-05-07T05:18:17;93509.41;;;23.78
70415;BMP280;57837;52.064;113.478;2023-05-07T05:21:21;93507.31;;;24.06
70415;BMP280;57837;52.064;113.478;2023-05-07T05:24:30;93492.31;;;23.94
70415;BMP280;57837;52.064;113.478;2023-05-07T05:27:35;93498.47;;;23.96
70415;BMP280;57837;52.064;113.478;2023-05-07T05:30:40;93511.69;;;23.74
70415;BMP280;57837;52.064;113.478;2023-05-07T05:33:44;93516.84;;;23.05
70415;BMP280;57837;52.064;113.478;2023-05-07T05:36:48;93520.66;;;22.82
70415;BMP280;57837;52.064;113.478;2023-05-07T05:39:53;93499.53;;;22.82
70415;BMP280;57837;52.064;113.478;2023-05-07T05:43:00;93507.16;;;22.57
70415;BMP280;57837;52.064;113.478;2023-05-07T05:46:04;93526.34;;;22.65
70415;BMP280;57837;52.064;113.478;2023-05-07T05:49:08;93521.88;;;22.52
70415;BMP280;57837;52.064;113.478;2023-05-07T05:52:13;93503.91;;;22.43
70415;BMP280;57837;52.064;113.478;2023-05-07T05:55:17;93522.16;;;22.41
70415;BMP280;57837;52.064;113.478;2023-05-07T05:58:22;93523.31;;;22.53
70415;BMP280;57837;52.064;113.478;2023-05-07T06:01:31;93496.91;;;22.53
70415;BMP280;57837;52.064;113.478;2023-05-07T06:04:37;93506.13;;;22.67
70415;BMP280;57837;52.064;113.478;2023-05-07T06:07:41;93500.88;;;22.75
70415;BMP280;57837;52.064;113.478;2023-05-07T06:10:45;93507.41;;;22.74
70415;BMP280;57837;52.064;113.478;2023-05-07T06:13:50;93504.06;;;22.45
70415;BMP280;57837;52.064;113.478;2023-05-07T06:16:54;93513.84;;;22.30
70415;BMP280;57837;52.064;113.478;2023-05-07T06:19:58;93506.03;;;21.96
70415;BMP280;57837;52.064;113.478;2023-05-07T06:23:02;93509.13;;;22.07
70415;BMP280;57837;52.064;113.478;2023-05-07T06:26:08;93506.13;;;22.11
70415;BMP280;57837;52.064;113.478;2023-05-07T06:29:16;93515.16;;;22.16
70415;BMP280;57837;52.064;113.478;2023-05-07T06:32:20;93501.53;;;21.83
70415;BMP280;57837;52.064;113.478;2023-05-07T06:35:25;93501.09;;;21.51
70415;BMP280;57837;52.064;113.478;2023-05-07T06:38:29;93494.66;;;21.39
70415;BMP280;57837;52.064;113.478;2023-05-07T06:41:33;93519.16;;;21.34
70415;BMP280;57837;52.064;113.478;2023-05-07T06:44:43;93514.66;;;21.55
70415;BMP280;57837;52.064;113.478;2023-05-07T06:47:49;93514.84;;;21.57
70415;BMP280;57837;52.064;113.478;2023-05-07T06:50:53;93515.09;;;21.46
70415;BMP280;57837;52.064;113.478;2023-05-07T06:54:00;93514.25;;;21.17
70415;BMP280;57837;52.064;113.478;2023-05-07T06:57:04;93528.75;;;21.10
70415;BMP280;57837;52.064;113.478;2023-05-07T07:00:08;93528.94;;;21.13
70415;BMP280;57837;52.064;113.478;2023-05-07T07:03:24;93524.28;;;21.19
70415;BMP280;57837;52.064;113.478;2023-05-07T07:06:30;93518.41;;;21.13
70415;BMP280;57837;52.064;113.478;2023-05-07T07:09:38;93498.38;;;21.09
70415;BMP280;57837;52.064;113.478;2023-05-07T07:12:43;93514.41;;;20.98
70415;BMP280;57837;52.064;113.478;2023-05-07T07:15:47;93514.78;;;21.02
70415;BMP280;57837;52.064;113.478;2023-05-07T07:18:52;93508.91;;;21.09
70415;BMP280;57837;52.064;113.478;2023-05-07T07:21:56;93524.22;;;20.98
70415;BMP280;57837;52.064;113.478;2023-05-07T07:25:00;93515.22;;;20.93
70415;BMP280;57837;52.064;113.478;2023-05-07T07:28:05;93521.28;;;20.88
70415;BMP280;57837;52.064;113.478;2023-05-07T07:31:12;93510.97;;;20.77
70415;BMP280;57837;52.064;113.478;2023-05-07T07:34:16;93519.75;;;20.80
70415;BMP280;57837;52.064;113.478;2023-05-07T07:37:20;93500.06;;;20.60
70415;BMP280;57837;52.064;113.478;2023-05-07T07:40:24;93525.44;;;20.57
70415;BMP280;57837;52.064;113.478;2023-05-07T07:43:28;93522.59;;;20.42
70415;BMP280;57837;52.064;113.478;2023-05-07T07:46:33;93515.00;;;20.39
70415;BMP280;57837;52.064;113.478;2023-05-07T07:49:37;93527.22;;;20.49
70415;BMP280;57837;52.064;113.478;2023-05-07T07:52:43;93526.75;;;20.51
70415;BMP280;57837;52.064;113.478;2023-05-07T07:55:50;93521.25;;;20.49
70415;BMP280;57837;52.064;113.478;2023-05-07T07:59:02;93541.72;;;20.43
70415;BMP280;57837;52.064;113.478;2023-05-07T08:02:07;93526.41;;;20.28
70415;BMP280;57837;52.064;113.478;2023-05-07T08:05:12;93532.47;;;20.23
70415;BMP280;57837;52.064;113.478;2023-05-07T08:08:15;93532.75;;;20.20
70415;BMP280;57837;52.064;113.478;2023-05-07T08:11:20;93538.00;;;20.06
70415;BMP280;57837;52.064;113.478;2023-05-07T08:14:26;93552.69;;;20.15
70415;BMP280;57837;52.064;113.478;2023-05-07T08:17:31;93544.84;;;19.96
70415;BMP280;57837;52.064;113.478;2023-05-07T08:20:36;93533.63;;;19.96
70415;BMP280;57837;52.064;113.478;2023-05-07T08:23:48;93543.72;;;19.92
70415;BMP280;57837;52.064;113.478;2023-05-07T08:26:51;93542.41;;;19.98
70415;BMP280;57837;52.064;113.478;2023-05-07T08:29:55;93551.28;;;19.95
70415;BMP280;57837;52.064;113.478;2023-05-07T08:33:00;93550.91;;;19.91
70415;BMP280;57837;52.064;113.478;2023-05-07T08:36:06;93550.00;;;19.89
70415;BMP280;57837;52.064;113.478;2023-05-07T08:39:12;93562.53;;;19.96
70415;BMP280;57837;52.064;113.478;2023-05-07T08:42:16;93554.13;;;19.84
70415;BMP280;57837;52.064;113.478;2023-05-07T08:45:20;93569.16;;;19.65
70415;BMP280;57837;52.064;113.478;2023-05-07T08:48:25;93580.03;;;19.56
70415;BMP280;57837;52.064;113.478;2023-05-07T08:51:44;93575.84;;;19.47
70415;BMP280;57837;52.064;113.478;2023-05-07T08:54:48;93570.09;;;19.30
70415;BMP280;57837;52.064;113.478;2023-05-07T08:57:51;93585.59;;;19.09
70415;BMP280;57837;52.064;113.478;2023-05-07T09:00:56;93593.94;;;18.84
70415;BMP280;57837;52.064;113.478;2023-05-07T09:03:59;93604.34;;;18.65
70415;BMP280;57837;52.064;113.478;2023-05-07T09:07:04;93621.69;;;18.44
70415;BMP280;57837;52.064;113.478;2023-05-07T09:10:14;93606.69;;;18.44
70415;BMP280;57837;52.064;113.478;2023-05-07T09:13:20;93614.38;;;18.37
70415;BMP280;57837;52.064;113.478;2023-05-07T09:16:25;93655.38;;;18.29
70415;BMP280;57837;52.064;113.478;2023-05-07T09:19:31;93650.59;;;17.97
70415;BMP280;57837;52.064;113.478;2023-05-07T09:22:38;93645.38;;;17.86
70415;BMP280;57837;52.064;113.478;2023-05-07T09:25:45;93654.22;;;17.83
70415;BMP280;57837;52.064;113.478;2023-05-07T09:28:56;93668.25;;;17.80
70415;BMP280;57837;52.064;113.478;2023-05-07T09:32:01;93664.50;;;17.70
70415;BMP280;57837;52.064;113.478;2023-05-07T09:35:13;93668.59;;;17.54
70415;BMP280;57837;52.064;113.478;2023-05-07T09:38:22;93664.03;;;17.66
70415;BMP280;57837;52.064;113.478;2023-05-07T09:41:30;93668.09;;;17.56
70415;BMP280;57837;52.064;113.478;2023-05-07T09:44:44;93689.09;;;17.45
70415;BMP280;57837;52.064;113.478;2023-05-07T09:47:55;93685.06;;;17.38
70415;BMP280;57837;52.064;113.478;2023-05-07T09:51:02;93677.44;;;17.35
70415;BMP280;57837;52.064;113.478;2023-05-07T09:54:08;93702.69;;;17.15
70415;BMP280;57837;52.064;113.478;2023-05-07T09:57:15;93692.94;;;17.05
70415;BMP280;57837;52.064;113.478;2023-05-07T10:00:23;93709.81;;;16.93
70415;BMP280;57837;52.064;113.478;2023-05-07T10:03:37;93701.25;;;16.87
70415;BMP280;57837;52.064;113.478;2023-05-07T10:06:44;93705.31;;;16.88
70415;BMP280;57837;52.064;113.478;2023-05-07T10:09:50;93718.13;;;16.80
70415;BMP280;57837;52.064;113.478;2023-05-07T10:13:19;93716.47;;;16.77
70415;BMP280;57837;52.064;113.478;2023-05-07T10:16:25;93725.25;;;16.74
70415;BMP280;57837;52.064;113.478;2023-05-07T10:19:30;93725.25;;;16.74
70415;BMP280;57837;52.064;113.478;2023-05-07T10:22:43;93738.06;;;16.72
70415;BMP280;57837;52.064;113.478;2023-05-07T10:25:49;93744.25;;;16.58
70415;BMP280;57837;52.064;113.478;2023-05-07T10:29:05;93768.50;;;16.58
70415;BMP280;57837;52.064;113.478;2023-05-07T10:32:39;93758.75;;;16.59
70415;BMP280;57837;52.064;113.478;2023-05-07T10:35:47;93756.34;;;16.55
70415;BMP280;57837;52.064;113.478;2023-05-07T10:38:52;93778.41;;;16.38
70415;BMP280;57837;52.064;113.478;2023-05-07T10:41:55;93792.56;;;16.20
70415;BMP280;57837;52.064;113.478;2023-05-07T10:45:12;93796.31;;;16.13
70415;BMP280;57837;52.064;113.478;2023-05-07T10:48:18;93798.69;;;16.11
70415;BMP280;57837;52.064;113.478;2023-05-07T10:51:40;93799.25;;;15.84
70415;BMP280;57837;52.064;113.478;2023-05-07T10:58:30;93825.66;;;15.34
70415;BMP280;57837;52.064;113.478;2023-05-07T11:01:54;93842.13;;;15.20
70415;BMP280;57837;52.064;113.478;2023-05-07T11:05:21;93857.06;;;14.94
70415;BMP280;57837;52.064;113.478;2023-05-07T11:08:59;93866.16;;;14.64
70415;BMP280;57837;52.064;113.478;2023-05-07T11:15:48;93865.72;;;14.30
70415;BMP280;57837;52.064;113.478;2023-05-07T11:19:09;93884.09;;;14.06
70415;BMP280;57837;52.064;113.478;2023-05-07T11:25:44;93900.50;;;13.83
70415;BMP280;57837;52.064;113.478;2023-05-07T11:28:55;93908.03;;;13.66
70415;BMP280;57837;52.064;113.478;2023-05-07T11:32:01;93922.25;;;13.42
70415;BMP280;57837;52.064;113.478;2023-05-07T11:35:13;93927.81;;;13.35
70415;BMP280;57837;52.064;113.478;2023-05-07T11:38:19;93931.75;;;13.30
70415;BMP280;57837;52.064;113.478;2023-05-07T11:41:34;93937.00;;;13.21
70415;BMP280;57837;52.064;113.478;2023-05-07T11:44:43;93938.94;;;13.11
70415;BMP280;57837;52.064;113.478;2023-05-07T11:47:47;93953.59;;;13.00
70415;BMP280;57837;52.064;113.478;2023-05-07T11:50:51;93960.72;;;12.90
70415;BMP280;57837;52.064;113.478;2023-05-07T11:53:56;93958.63;;;12.79
70415;BMP280;57837;52.064;113.478;2023-05-07T11:57:00;93977.13;;;12.63
70415;BMP280;57837;52.064;113.478;2023-05-07T12:00:05;93981.81;;;12.50
70415;BMP280;57837;52.064;113.478;2023-05-07T12:03:14;93990.19;;;12.45
70415;BMP280;57837;52.064;113.478;2023-05-07T12:06:19;93992.06;;;12.35
70415;BMP280;57837;52.064;113.478;2023-05-07T12:09:22;93991.66;;;12.19
70415;BMP280;57837;52.064;113.478;2023-05-07T12:12:26;94009.41;;;12.02
70415;BMP280;57837;52.064;113.478;2023-05-07T12:15:30;94009.28;;;11.96
70415;BMP280;57837;52.064;113.478;2023-05-07T12:18:57;94020.38;;;11.88
70415;BMP280;57837;52.064;113.478;2023-05-07T12:22:02;94028.28;;;11.75
70415;BMP280;57837;52.064;113.478;2023-05-07T12:25:06;94037.66;;;11.64
70415;BMP280;57837;52.064;113.478;2023-05-07T12:28:16;94041.97;;;11.57
70415;BMP280;57837;52.064;113.478;2023-05-07T12:31:20;94059.50;;;11.53
70415;BMP280;57837;52.064;113.478;2023-05-07T12:34:24;94062.34;;;11.37
70415;BMP280;57837;52.064;113.478;2023-05-07T12:37:27;94079.03;;;11.27
70415;BMP280;57837;52.064;113.478;2023-05-07T12:43:47;94086.38;;;10.98
70415;BMP280;57837;52.064;113.478;2023-05-07T12:46:51;94101.75;;;10.92
70415;BMP280;57837;52.064;113.478;2023-05-07T12:49:55;94107.19;;;10.85
70415;BMP280;57837;52.064;113.478;2023-05-07T12:52:59;94115.25;;;10.87
70415;BMP280;57837;52.064;113.478;2023-05-07T12:56:05;94125.53;;;10.78
70415;BMP280;57837;52.064;113.478;2023-05-07T12:59:09;94132.94;;;10.67
70415;BMP280;57837;52.064;113.478;2023-05-07T13:02:12;94141.06;;;10.56
70415;BMP280;57837;52.064;113.478;2023-05-07T13:05:16;94144.38;;;10.57
70415;BMP280;57837;52.064;113.478;2023-05-07T13:08:33;94150.09;;;10.52
70415;BMP280;57837;52.064;113.478;2023-05-07T13:11:37;94171.13;;;10.41
70415;BMP280;57837;52.064;113.478;2023-05-07T13:14:41;94180.88;;;10.37
70415;BMP280;57837;52.064;113.478;2023-05-07T13:17:44;94191.66;;;10.35
70415;BMP280;57837;52.064;113.478;2023-05-07T13:20:47;94193.41;;;10.26
70415;BMP280;57837;52.064;113.478;2023-05-07T13:23:51;94191.09;;;10.06
70415;BMP280;57837;52.064;113.478;2023-05-07T13:26:55;94206.81;;;9.99
70415;BMP280;57837;52.064;113.478;2023-05-07T13:29:59;94216.31;;;9.89
70415;BMP280;57837;52.064;113.478;2023-05-07T13:33:02;94215.91;;;9.78
70415;BMP280;57837;52.064;113.478;2023-05-07T13:36:06;94222.94;;;9.78
70415;BMP280;57837;52.064;113.478;2023-05-07T13:39:09;94224.38;;;9.79
70415;BMP280;57837;52.064;113.478;2023-05-07T13:42:13;94232.16;;;9.79
70415;BMP280;57837;52.064;113.478;2023-05-07T13:45:20;94237.00;;;9.77
70415;BMP280;57837;52.064;113.478;2023-05-07T13:48:24;94243.09;;;9.70
70415;BMP280;57837;52.064;113.478;2023-05-07T13:51:28;94244.09;;;9.60
70415;BMP280;57837;52.064;113.478;2023-05-07T13:54:31;94251.50;;;9.45
70415;BMP280;57837;52.064;113.478;2023-05-07T13:57:35;94248.28;;;9.41
70415;BMP280;57837;52.064;113.478;2023-05-07T14:00:39;94259.53;;;9.35
70415;BMP280;57837;52.064;113.478;2023-05-07T14:03:43;94260.53;;;9.25
70415;BMP280;57837;52.064;113.478;2023-05-07T14:06:47;94267.63;;;9.21
70415;BMP280;57837;52.064;113.478;2023-05-07T14:09:50;94275.38;;;9.21
70415;BMP280;57837;52.064;113.478;2023-05-07T14:12:53;94276.13;;;9.21
70415;BMP280;57837;52.064;113.478;2023-05-07T14:15:58;94289.69;;;9.25
70415;BMP280;57837;52.064;113.478;2023-05-07T14:19:01;94293.06;;;9.22
70415;BMP280;57837;52.064;113.478;2023-05-07T14:22:05;94295.03;;;9.18
70415;BMP280;57837;52.064;113.478;2023-05-07T14:25:08;94295.91;;;9.11
70415;BMP280;57837;52.064;113.478;2023-05-07T14:28:19;94313.03;;;9.05
70415;BMP280;57837;52.064;113.478;2023-05-07T14:31:23;94315.41;;;9.00
70415;BMP280;57837;52.064;113.478;2023-05-07T14:34:27;94314.75;;;8.96
70415;BMP280;57837;52.064;113.478;2023-05-07T14:37:31;94318.13;;;8.93
70415;BMP280;57837;52.064;113.478;2023-05-07T14:40:34;94323.03;;;8.87
70415;BMP280;57837;52.064;113.478;2023-05-07T14:43:37;94331.69;;;8.81
70415;BMP280;57837;52.064;113.478;2023-05-07T14:46:41;94337.00;;;8.73
70415;BMP280;57837;52.064;113.478;2023-05-07T14:49:45;94334.41;;;8.73
70415;BMP280;57837;52.064;113.478;2023-05-07T14:52:49;94346.69;;;8.69
70415;BMP280;57837;52.064;113.478;2023-05-07T14:55:54;94353.19;;;8.58
70415;BMP280;57837;52.064;113.478;2023-05-07T14:58:58;94356.94;;;8.37
70415;BMP280;57837;52.064;113.478;2023-05-07T15:02:01;94364.09;;;8.29
70415;BMP280;57837;52.064;113.478;2023-05-07T15:05:08;94361.97;;;8.24
70415;BMP280;57837;52.064;113.478;2023-05-07T15:08:13;94365.75;;;8.20
70415;BMP280;57837;52.064;113.478;2023-05-07T15:11:17;94365.66;;;8.23
70415;BMP280;57837;52.064;113.478;2023-05-07T15:14:20;94371.59;;;8.20
70415;BMP280;57837;52.064;113.478;2023-05-07T15:17:26;94378.94;;;8.22
70415;BMP280;57837;52.064;113.478;2023-05-07T15:20:30;94378.78;;;8.13
70415;BMP280;57837;52.064;113.478;2023-05-07T15:23:35;94373.75;;;8.06
70415;BMP280;57837;52.064;113.478;2023-05-07T15:26:38;94380.44;;;8.03
70415;BMP280;57837;52.064;113.478;2023-05-07T15:29:41;94387.91;;;7.97
70415;BMP280;57837;52.064;113.478;2023-05-07T15:32:45;94387.94;;;7.94
70415;BMP280;57837;52.064;113.478;2023-05-07T15:35:49;94386.56;;;7.89
70415;BMP280;57837;52.064;113.478;2023-05-07T15:38:52;94389.66;;;7.81
70415;BMP280;57837;52.064;113.478;2023-05-07T15:41:56;94388.38;;;7.69
70415;BMP280;57837;52.064;113.478;2023-05-07T15:44:59;94391.09;;;7.62
70415;BMP280;57837;52.064;113.478;2023-05-07T15:48:04;94397.81;;;7.56
70415;BMP280;57837;52.064;113.478;2023-05-07T15:51:07;94390.97;;;7.46
70415;BMP280;57837;52.064;113.478;2023-05-07T15:54:12;94400.66;;;7.38
70415;BMP280;57837;52.064;113.478;2023-05-07T15:57:16;94396.06;;;7.26
70415;BMP280;57837;52.064;113.478;2023-05-07T16:00:20;94392.47;;;7.20
70415;BMP280;57837;52.064;113.478;2023-05-07T16:03:24;94389.25;;;7.12
70415;BMP280;57837;52.064;113.478;2023-05-07T16:06:28;94393.50;;;6.99
70415;BMP280;57837;52.064;113.478;2023-05-07T16:09:33;94387.44;;;6.86
70415;BMP280;57837;52.064;113.478;2023-05-07T16:12:37;94394.97;;;6.73
70415;BMP280;57837;52.064;113.478;2023-05-07T16:15:41;94399.50;;;6.62
70415;BMP280;57837;52.064;113.478;2023-05-07T16:18:44;94398.06;;;6.58
70415;BMP280;57837;52.064;113.478;2023-05-07T16:21:47;94396.34;;;6.51
70415;BMP280;57837;52.064;113.478;2023-05-07T16:24:51;94400.16;;;6.39
70415;BMP280;57837;52.064;113.478;2023-05-07T16:27:55;94409.34;;;6.37
70415;BMP280;57837;52.064;113.478;2023-05-07T16:30:59;94405.41;;;6.29
70415;BMP280;57837;52.064;113.478;2023-05-07T16:34:03;94408.72;;;6.29
70415;BMP280;57837;52.064;113.478;2023-05-07T16:37:07;94417.59;;;6.21
70415;BMP280;57837;52.064;113.478;2023-05-07T16:40:11;94422.47;;;6.12
70415;BMP280;57837;52.064;113.478;2023-05-07T16:43:15;94426.66;;;5.99
70415;BMP280;57837;52.064;113.478;2023-05-07T16:46:19;94434.06;;;5.90
70415;BMP280;57837;52.064;113.478;2023-05-07T16:49:23;94442.50;;;5.90
70415;BMP280;57837;52.064;113.478;2023-05-07T16:52:28;94439.25;;;5.83
70415;BMP280;57837;52.064;113.478;2023-05-07T16:55:35;94437.44;;;5.76
70415;BMP280;57837;52.064;113.478;2023-05-07T16:58:40;94439.75;;;5.67
70415;BMP280;57837;52.064;113.478;2023-05-07T17:01:44;94441.59;;;5.63
70415;BMP280;57837;52.064;113.478;2023-05-07T17:04:48;94446.06;;;5.55
70415;BMP280;57837;52.064;113.478;2023-05-07T17:07:52;94452.47;;;5.29
70415;BMP280;57837;52.064;113.478;2023-05-07T17:10:57;94454.75;;;5.13
70415;BMP280;57837;52.064;113.478;2023-05-07T17:14:01;94457.75;;;5.05
70415;BMP280;57837;52.064;113.478;2023-05-07T17:17:07;94455.25;;;4.90
70415;BMP280;57837;52.064;113.478;2023-05-07T17:20:11;94463.34;;;4.82
70415;BMP280;57837;52.064;113.478;2023-05-07T17:23:15;94452.72;;;4.76
70415;BMP280;57837;52.064;113.478;2023-05-07T17:26:20;94452.34;;;4.81
70415;BMP280;57837;52.064;113.478;2023-05-07T17:29:24;94447.22;;;4.78
70415;BMP280;57837;52.064;113.478;2023-05-07T17:32:28;94446.88;;;4.69
70415;BMP280;57837;52.064;113.478;2023-05-07T17:35:32;94453.84;;;4.68